createdAt,value
2019-03-11T00:00:37.590Z,5.32
2019-03-11T00:03:07.224Z,5.33
2019-03-11T00:05:36.680Z,5.33
2019-03-11T00:08:06.525Z,5.34
2019-03-11T00:10:35.990Z,5.35
2019-03-11T00:13:05.543Z,5.38
2019-03-11T00:15:35.046Z,5.40
2019-03-11T00:18:04.583Z,5.42
2019-03-11T00:20:34.050Z,5.44
2019-03-11T00:23:03.563Z,5.49
2019-03-11T00:25:33.017Z,5.53
2019-03-11T00:28:02.507Z,5.58
2019-03-11T00:30:32.010Z,5.62
2019-03-11T00:33:01.477Z,5.66
2019-03-11T00:35:31.020Z,5.69
2019-03-11T00:38:00.512Z,5.75
2019-03-11T00:40:29.967Z,5.79
2019-03-11T00:42:59.451Z,5.84
2019-03-11T00:45:28.953Z,5.89
2019-03-11T00:48:02.344Z,5.95
2019-03-11T00:50:29.642Z,5.97
2019-03-11T00:52:59.119Z,5.99
2019-03-11T00:55:28.595Z,5.98
2019-03-11T00:57:58.052Z,5.97
2019-03-11T01:00:37.424Z,5.96
2019-03-11T01:03:07.018Z,5.94
2019-03-11T01:05:36.497Z,5.90
2019-03-11T01:08:06.329Z,5.88
2019-03-11T01:10:35.870Z,5.85
2019-03-11T01:13:05.546Z,5.82
2019-03-11T01:15:35.042Z,5.79
2019-03-11T01:18:04.500Z,5.76
2019-03-11T01:20:34.075Z,5.75
2019-03-11T01:23:03.552Z,5.73
2019-03-11T01:25:33.044Z,5.69
2019-03-11T01:28:02.502Z,5.68
2019-03-11T01:30:32.017Z,5.67
2019-03-11T01:33:01.489Z,5.65
2019-03-11T01:35:30.962Z,5.61
2019-03-11T01:38:00.501Z,5.58
2019-03-11T01:40:29.997Z,5.55
2019-03-11T01:42:59.456Z,5.53
2019-03-11T01:45:28.964Z,5.50
2019-03-11T01:47:58.431Z,5.45
2019-03-11T01:50:27.994Z,5.42
2019-03-11T01:52:57.455Z,5.40
2019-03-11T01:55:26.953Z,5.37
2019-03-11T01:57:56.413Z,5.35
2019-03-11T02:00:25.869Z,5.32
2019-03-11T02:02:55.370Z,5.31
2019-03-11T02:05:24.842Z,5.30
2019-03-11T02:07:54.334Z,5.29
2019-03-11T02:10:23.828Z,5.28
2019-03-11T02:12:53.300Z,5.29
2019-03-11T02:15:22.785Z,5.31
2019-03-11T02:17:52.245Z,5.32
2019-03-11T02:20:21.737Z,5.32
2019-03-11T02:22:51.207Z,5.35
2019-03-11T02:25:20.751Z,5.37
2019-03-11T02:27:50.235Z,5.38
2019-03-11T02:30:19.788Z,5.40
2019-03-11T02:32:49.342Z,5.41
2019-03-11T02:35:33.799Z,5.44
2019-03-11T02:38:03.308Z,5.45
2019-03-11T02:40:32.790Z,5.47
2019-03-11T02:43:02.314Z,5.50
2019-03-11T02:45:31.905Z,5.53
2019-03-11T02:48:01.358Z,5.57
2019-03-11T02:50:30.989Z,5.59
2019-03-11T02:53:00.450Z,5.60
2019-03-11T02:55:29.937Z,5.63
2019-03-11T02:57:59.434Z,5.65
2019-03-11T03:00:28.892Z,5.68
2019-03-11T03:03:02.732Z,5.71
2019-03-11T03:05:42.590Z,5.75
2019-03-11T03:08:12.042Z,5.77
2019-03-11T03:10:41.522Z,5.81
2019-03-11T03:13:11.055Z,5.85
2019-03-11T03:15:40.547Z,5.87
2019-03-11T03:18:10.099Z,5.92
2019-03-11T03:20:39.621Z,5.95
2019-03-11T03:23:09.144Z,5.99
2019-03-11T03:25:38.634Z,6.01
2019-03-11T03:28:08.199Z,6.04
2019-03-11T03:30:37.959Z,6.05
2019-03-11T03:33:07.481Z,6.08
2019-03-11T03:35:36.993Z,6.11
2019-03-11T03:38:06.529Z,6.11
2019-03-11T03:40:36.024Z,6.12
2019-03-11T03:43:05.841Z,6.13
2019-03-11T03:45:39.461Z,6.13
2019-03-11T03:48:08.883Z,6.14
2019-03-11T03:50:40.299Z,6.17
2019-03-11T03:53:10.114Z,6.18
2019-03-11T03:55:39.678Z,6.19
2019-03-11T03:58:09.169Z,6.20
2019-03-11T04:00:38.722Z,6.22
2019-03-11T04:03:08.288Z,6.21
2019-03-11T04:05:37.760Z,6.22
2019-03-11T04:08:07.215Z,6.20
2019-03-11T04:10:36.716Z,6.20
2019-03-11T04:13:06.276Z,6.19
2019-03-11T04:15:35.721Z,6.18
2019-03-11T04:18:09.059Z,6.18
2019-03-11T04:20:38.869Z,6.17
2019-03-11T04:23:08.358Z,6.16
2019-03-11T04:25:38.005Z,6.13
2019-03-11T04:28:07.603Z,6.13
2019-03-11T04:30:37.109Z,6.11
2019-03-11T04:33:06.582Z,6.10
2019-03-11T04:35:36.128Z,6.10
2019-03-11T04:38:05.576Z,6.07
2019-03-11T04:40:35.077Z,6.07
2019-03-11T04:43:04.663Z,6.06
2019-03-11T04:45:34.127Z,6.03
2019-03-11T04:48:03.635Z,6.02
2019-03-11T04:50:33.205Z,6.01
2019-03-11T04:53:02.707Z,6.00
2019-03-11T04:55:32.159Z,6.01
2019-03-11T04:58:01.720Z,6.01
2019-03-11T05:00:32.824Z,6.02
2019-03-11T05:03:02.418Z,6.04
2019-03-11T05:05:32.047Z,6.04
2019-03-11T05:08:01.581Z,6.02
2019-03-11T05:10:31.074Z,6.00
2019-03-11T05:13:00.606Z,5.96
2019-03-11T05:15:30.053Z,5.92
2019-03-11T05:17:59.502Z,5.87
2019-03-11T05:20:28.962Z,5.82
2019-03-11T05:22:58.535Z,5.75
2019-03-11T05:25:27.997Z,5.69
2019-03-11T05:27:57.492Z,5.63
2019-03-11T05:30:27.080Z,5.57
2019-03-11T05:32:56.562Z,5.53
2019-03-11T05:35:26.169Z,5.47
2019-03-11T05:37:55.656Z,5.42
2019-03-11T05:40:25.281Z,5.40
2019-03-11T05:42:54.738Z,5.38
2019-03-11T05:45:24.266Z,5.36
2019-03-11T05:47:53.769Z,5.37
2019-03-11T05:50:23.226Z,5.37
2019-03-11T05:52:52.793Z,5.38
2019-03-11T05:55:22.299Z,5.38
2019-03-11T05:57:51.839Z,5.40
2019-03-11T06:00:24.103Z,5.42
2019-03-11T06:02:53.567Z,5.45
2019-03-11T06:05:23.121Z,5.47
2019-03-11T06:07:52.619Z,5.50
2019-03-11T06:10:22.178Z,5.49
2019-03-11T06:12:51.818Z,5.49
2019-03-11T06:15:21.316Z,5.47
2019-03-11T06:17:50.841Z,5.45
2019-03-11T06:20:32.327Z,5.42
2019-03-11T06:23:03.511Z,5.38
2019-03-11T06:25:32.989Z,5.33
2019-03-11T06:28:03.051Z,5.29
2019-03-11T06:30:32.983Z,5.25
2019-03-11T06:33:02.486Z,5.21
2019-03-11T06:35:32.021Z,5.19
2019-03-11T06:38:01.565Z,5.17
2019-03-11T06:40:31.195Z,5.17
2019-03-11T06:43:00.679Z,5.15
2019-03-11T06:45:30.132Z,5.17
2019-03-11T06:47:59.632Z,5.15
2019-03-11T06:50:29.168Z,5.17
2019-03-11T06:52:58.680Z,5.18
2019-03-11T06:55:28.171Z,5.20
2019-03-11T06:57:57.671Z,5.22
2019-03-11T07:00:27.201Z,5.26
2019-03-11T07:02:56.707Z,5.29
2019-03-11T07:05:26.211Z,5.29
2019-03-11T07:07:55.751Z,5.30
2019-03-11T07:10:25.249Z,5.28
2019-03-11T07:12:54.695Z,5.26
2019-03-11T07:15:24.375Z,5.22
2019-03-11T07:17:53.900Z,5.17
2019-03-11T07:20:23.384Z,5.13
2019-03-11T07:22:52.885Z,5.10
2019-03-11T07:25:22.424Z,5.08
2019-03-11T07:27:51.915Z,5.06
2019-03-11T07:30:21.733Z,5.05
2019-03-11T07:32:51.240Z,5.05
2019-03-11T07:35:20.709Z,5.06
2019-03-11T07:37:50.266Z,5.08
2019-03-11T07:40:29.307Z,5.10
2019-03-11T07:42:51.156Z,5.13
2019-03-11T07:45:20.652Z,5.15
2019-03-11T07:47:50.214Z,5.19
2019-03-11T07:50:19.807Z,5.22
2019-03-11T07:52:49.293Z,5.26
2019-03-11T07:55:18.879Z,5.31
2019-03-11T07:57:48.421Z,5.33
2019-03-11T08:00:19.973Z,5.36
2019-03-11T08:02:49.576Z,5.37
2019-03-11T08:05:19.141Z,5.42
2019-03-11T08:07:48.639Z,5.43
2019-03-11T08:10:25.947Z,5.45
2019-03-11T08:12:55.520Z,5.48
2019-03-11T08:15:24.996Z,5.53
2019-03-11T08:17:54.485Z,5.56
2019-03-11T08:20:24.060Z,5.57
2019-03-11T08:22:53.606Z,5.59
2019-03-11T08:25:23.097Z,5.62
2019-03-11T08:27:52.591Z,5.64
2019-03-11T08:30:23.695Z,5.65
2019-03-11T08:32:53.180Z,5.68
2019-03-11T08:35:22.771Z,5.71
2019-03-11T08:37:52.219Z,5.73
2019-03-11T08:40:22.515Z,5.77
2019-03-11T08:42:52.007Z,5.80
2019-03-11T08:45:21.549Z,5.83
2019-03-11T08:47:51.013Z,5.85
2019-03-11T08:50:20.569Z,5.89
2019-03-11T08:52:50.050Z,5.90
2019-03-11T08:55:19.572Z,5.91
2019-03-11T08:57:49.062Z,5.91
2019-03-11T09:00:22.275Z,5.89
2019-03-11T09:02:51.904Z,5.93
2019-03-11T09:05:21.501Z,5.96
2019-03-11T09:07:51.065Z,5.98
2019-03-11T09:10:20.894Z,6.00
2019-03-11T09:12:50.421Z,6.03
2019-03-11T09:15:22.281Z,6.05
2019-03-11T09:17:51.763Z,6.07
2019-03-11T09:20:21.300Z,6.07
2019-03-11T09:22:50.869Z,6.08
2019-03-11T09:25:28.555Z,6.11
2019-03-11T09:27:58.067Z,6.16
2019-03-11T09:30:27.673Z,6.20
2019-03-11T09:32:57.241Z,6.23
2019-03-11T09:35:26.784Z,6.27
2019-03-11T09:37:56.287Z,6.30
2019-03-11T09:40:25.822Z,6.32
2019-03-11T09:42:55.296Z,6.31
2019-03-11T09:45:25.038Z,6.29
2019-03-11T09:47:54.739Z,6.30
2019-03-11T09:50:24.308Z,6.30
2019-03-11T09:52:53.825Z,6.30
2019-03-11T09:55:27.124Z,6.32
2019-03-11T09:57:56.599Z,6.33
2019-03-11T10:00:29.827Z,6.36
2019-03-11T10:02:59.345Z,6.37
2019-03-11T10:05:28.954Z,6.41
2019-03-11T10:07:58.448Z,6.47
2019-03-11T10:10:30.039Z,6.50
2019-03-11T10:12:59.646Z,6.57
2019-03-11T10:15:29.157Z,6.65
2019-03-11T10:17:58.650Z,6.67
2019-03-11T10:20:28.178Z,6.68
2019-03-11T10:22:57.681Z,6.71
2019-03-11T10:25:27.178Z,6.74
2019-03-11T10:27:56.786Z,6.80
2019-03-11T10:30:26.411Z,6.86
2019-03-11T10:32:55.955Z,6.92
2019-03-11T10:35:33.120Z,6.98
2019-03-11T10:37:56.709Z,7.05
2019-03-11T10:40:33.217Z,7.13
2019-03-11T10:43:02.670Z,7.20
2019-03-11T10:45:32.483Z,7.27
2019-03-11T10:48:02.164Z,7.35
2019-03-11T10:50:31.663Z,7.45
2019-03-11T10:53:01.209Z,7.54
2019-03-11T10:55:30.801Z,7.64
2019-03-11T10:58:00.345Z,7.73
2019-03-11T11:00:32.930Z,7.81
2019-03-11T11:03:02.615Z,7.89
2019-03-11T11:05:32.260Z,7.99
2019-03-11T11:08:01.908Z,8.08
2019-03-11T11:10:31.400Z,8.16
2019-03-11T11:13:00.971Z,8.23
2019-03-11T11:15:32.239Z,8.30
2019-03-11T11:18:01.807Z,8.38
2019-03-11T11:20:31.395Z,8.47
2019-03-11T11:23:00.880Z,8.53
2019-03-11T11:25:31.488Z,8.57
2019-03-11T11:28:01.050Z,8.60
2019-03-11T11:30:33.508Z,8.63
2019-03-11T11:33:03.064Z,8.67
2019-03-11T11:35:32.558Z,8.73
2019-03-11T11:38:02.079Z,8.81
2019-03-11T11:40:32.233Z,8.90
2019-03-11T11:43:01.708Z,8.97
2019-03-11T11:45:33.355Z,9.02
2019-03-11T11:48:02.900Z,9.09
2019-03-11T11:50:32.523Z,9.14
2019-03-11T11:53:02.178Z,9.17
2019-03-11T11:55:31.679Z,9.21
2019-03-11T11:58:01.142Z,9.24
2019-03-11T12:00:34.234Z,9.27
2019-03-11T12:03:03.767Z,9.32
2019-03-11T12:05:33.477Z,9.39
2019-03-11T12:08:03.049Z,9.42
2019-03-11T12:10:33.849Z,9.46
2019-03-11T12:13:03.405Z,9.52
2019-03-11T12:15:33.016Z,9.57
2019-03-11T12:18:02.477Z,9.66
2019-03-11T12:20:32.605Z,9.74
2019-03-11T12:23:02.062Z,9.82
2019-03-11T12:25:31.621Z,9.88
2019-03-11T12:28:01.193Z,9.92
2019-03-11T12:30:34.917Z,9.96
2019-03-11T12:33:04.476Z,9.96
2019-03-11T12:35:34.183Z,10.09
2019-03-11T12:38:03.774Z,10.18
2019-03-11T12:40:33.342Z,10.22
2019-03-11T12:43:02.822Z,10.23
2019-03-11T12:45:32.319Z,10.20
2019-03-11T12:48:01.826Z,10.19
2019-03-11T12:50:33.171Z,10.16
2019-03-11T12:53:02.637Z,10.17
2019-03-11T12:55:32.160Z,10.23
2019-03-11T12:58:01.764Z,10.29
2019-03-11T13:00:31.255Z,10.35
2019-03-11T13:03:00.765Z,10.40
2019-03-11T13:05:30.237Z,10.42
2019-03-11T13:07:59.723Z,10.44
2019-03-11T13:10:31.841Z,10.45
2019-03-11T13:13:01.426Z,10.46
2019-03-11T13:15:30.996Z,10.47
2019-03-11T13:18:27.464Z,10.48
2019-03-11T13:20:56.953Z,10.44
2019-03-11T13:23:26.416Z,10.40
2019-03-11T13:25:56.071Z,10.34
2019-03-11T13:28:25.612Z,10.30
2019-03-11T13:30:55.149Z,10.25
2019-03-11T13:33:24.920Z,10.21
2019-03-11T13:35:56.640Z,10.16
2019-03-11T13:38:25.775Z,10.11
2019-03-11T13:40:55.331Z,10.08
2019-03-11T13:43:24.815Z,10.09
2019-03-11T13:45:54.313Z,10.10
2019-03-11T13:48:23.861Z,10.11
2019-03-11T13:50:53.360Z,10.12
2019-03-11T13:53:22.989Z,10.14
2019-03-11T13:55:52.459Z,10.11
2019-03-11T13:58:21.965Z,10.12
2019-03-11T14:00:56.871Z,10.10
2019-03-11T14:03:22.716Z,10.09
2019-03-11T14:05:52.193Z,10.07
2019-03-11T14:08:21.709Z,10.10
2019-03-11T14:10:51.217Z,10.16
2019-03-11T14:13:20.683Z,10.20
2019-03-11T14:15:50.236Z,10.21
2019-03-11T14:18:19.812Z,10.20
2019-03-11T14:20:49.324Z,10.19
2019-03-11T14:23:18.872Z,10.18
2019-03-11T14:25:48.369Z,10.18
2019-03-11T14:28:17.973Z,10.15
2019-03-11T14:30:47.537Z,10.13
2019-03-11T14:33:17.222Z,10.10
2019-03-11T14:35:46.973Z,10.10
2019-03-11T14:38:16.537Z,10.05
2019-03-11T14:40:46.106Z,10.03
2019-03-11T14:43:15.581Z,10.03
2019-03-11T14:45:45.065Z,10.04
2019-03-11T14:48:14.650Z,10.07
2019-03-11T14:50:44.153Z,10.10
2019-03-11T14:53:13.626Z,10.12
2019-03-11T14:55:43.201Z,10.16
2019-03-11T14:58:12.698Z,10.21
2019-03-11T15:00:42.283Z,10.26
2019-03-11T15:03:11.818Z,10.32
2019-03-11T15:05:41.404Z,10.35
2019-03-11T15:08:12.734Z,10.36
2019-03-11T15:10:42.102Z,10.36
2019-03-11T15:13:11.631Z,10.43
2019-03-11T15:15:41.146Z,10.45
2019-03-11T15:18:10.691Z,10.43
2019-03-11T15:20:40.337Z,10.43
2019-03-11T15:23:19.962Z,10.41
2019-03-11T15:25:41.350Z,10.40
2019-03-11T15:28:10.873Z,10.36
2019-03-11T15:30:40.412Z,10.33
2019-03-11T15:33:10.079Z,10.31
2019-03-11T15:35:39.675Z,10.30
2019-03-11T15:38:09.149Z,10.32
2019-03-11T15:40:38.675Z,10.31
2019-03-11T15:43:08.181Z,10.29
2019-03-11T15:45:38.975Z,10.28
2019-03-11T15:48:08.904Z,10.27
2019-03-11T15:50:38.687Z,10.23
2019-03-11T15:53:08.198Z,10.20
2019-03-11T15:55:37.737Z,10.17
2019-03-11T15:58:07.307Z,10.15
2019-03-11T16:00:36.948Z,10.12
2019-03-11T16:03:06.451Z,10.10
2019-03-11T16:05:36.122Z,10.09
2019-03-11T16:08:05.687Z,10.07
2019-03-11T16:10:35.297Z,10.08
2019-03-11T16:13:04.881Z,10.07
2019-03-11T16:15:34.538Z,10.08
2019-03-11T16:18:04.119Z,10.07
2019-03-11T16:20:33.711Z,10.09
2019-03-11T16:23:03.249Z,10.08
2019-03-11T16:25:32.831Z,10.06
2019-03-11T16:28:02.441Z,10.08
2019-03-11T16:30:32.026Z,10.07
2019-03-11T16:33:01.784Z,10.09
2019-03-11T16:35:31.376Z,10.09
2019-03-11T16:38:00.927Z,10.09
2019-03-11T16:40:30.390Z,10.10
2019-03-11T16:43:00.851Z,10.09
2019-03-11T16:45:30.538Z,10.08
2019-03-11T16:48:00.113Z,10.09
2019-03-11T16:50:29.605Z,10.07
2019-03-11T16:52:59.082Z,10.07
2019-03-11T16:55:39.157Z,10.06
2019-03-11T16:58:08.631Z,10.03
2019-03-11T17:00:51.810Z,9.98
2019-03-11T17:03:21.427Z,9.94
2019-03-11T17:05:51.044Z,9.89
2019-03-11T17:08:20.685Z,9.85
2019-03-11T17:10:50.161Z,9.81
2019-03-11T17:13:19.686Z,9.79
2019-03-11T17:15:49.272Z,9.72
2019-03-11T17:18:18.764Z,9.68
2019-03-11T17:20:48.349Z,9.63
2019-03-11T17:23:17.862Z,9.57
2019-03-11T17:25:47.374Z,9.51
2019-03-11T17:28:17.040Z,9.44
2019-03-11T17:30:46.585Z,9.35
2019-03-11T17:33:16.068Z,9.25
2019-03-11T17:35:45.750Z,9.17
2019-03-11T17:38:15.225Z,9.10
2019-03-11T17:40:44.685Z,9.04
2019-03-11T17:43:14.181Z,8.97
2019-03-11T17:45:43.696Z,8.91
2019-03-11T17:48:13.167Z,8.86
2019-03-11T17:50:42.727Z,8.79
2019-03-11T17:53:19.933Z,8.72
2019-03-11T17:55:43.655Z,8.65
2019-03-11T17:58:13.307Z,8.61
2019-03-11T18:00:54.822Z,8.57
2019-03-11T18:03:15.875Z,8.54
2019-03-11T18:05:45.472Z,8.53
2019-03-11T18:08:15.017Z,8.51
2019-03-11T18:10:44.643Z,8.51
2019-03-11T18:13:14.170Z,8.52
2019-03-11T18:15:43.645Z,8.53
2019-03-11T18:18:13.357Z,8.56
2019-03-11T18:20:42.839Z,8.58
2019-03-11T18:23:12.355Z,8.61
2019-03-11T18:25:41.890Z,8.64
2019-03-11T18:28:11.461Z,8.64
2019-03-11T18:30:41.004Z,8.67
2019-03-11T18:33:10.550Z,8.69
2019-03-11T18:35:40.090Z,8.71
2019-03-11T18:38:09.649Z,8.73
2019-03-11T18:40:39.117Z,8.75
2019-03-11T18:43:19.868Z,8.77
2019-03-11T18:45:39.934Z,8.78
2019-03-11T18:48:09.530Z,8.80
2019-03-11T18:50:39.192Z,8.81
2019-03-11T18:53:08.802Z,8.82
2019-03-11T18:55:38.358Z,8.84
2019-03-11T18:58:07.928Z,8.84
2019-03-11T19:00:37.846Z,8.82
2019-03-11T19:03:07.413Z,8.81
2019-03-11T19:05:36.883Z,8.83
2019-03-11T19:08:06.450Z,8.82
2019-03-11T19:10:35.923Z,8.81
2019-03-11T19:13:05.515Z,8.81
2019-03-11T19:15:35.120Z,8.81
2019-03-11T19:18:04.709Z,8.82
2019-03-11T19:20:34.353Z,8.81
2019-03-11T19:23:04.032Z,8.80
2019-03-11T19:25:33.681Z,8.78
2019-03-11T19:28:03.275Z,8.74
2019-03-11T19:30:32.798Z,8.72
2019-03-11T19:33:02.296Z,8.66
2019-03-11T19:35:31.859Z,8.63
2019-03-11T19:38:01.419Z,8.62
2019-03-11T19:40:30.883Z,8.61
2019-03-11T19:43:00.381Z,8.61
2019-03-11T19:45:29.912Z,8.61
2019-03-11T19:47:59.458Z,8.62
2019-03-11T19:50:29.034Z,8.62
2019-03-11T19:52:59.607Z,8.62
2019-03-11T19:55:29.382Z,8.66
2019-03-11T19:57:58.928Z,8.64
2019-03-11T20:00:28.613Z,8.66
2019-03-11T20:02:58.109Z,8.64
2019-03-11T20:05:30.378Z,8.64
2019-03-11T20:08:00.066Z,8.63
2019-03-11T20:10:29.791Z,8.63
2019-03-11T20:12:59.400Z,8.62
2019-03-11T20:15:28.991Z,8.64
2019-03-11T20:17:58.612Z,8.64
2019-03-11T20:20:28.219Z,8.64
2019-03-11T20:22:57.699Z,8.65
2019-03-11T20:25:30.814Z,8.65
2019-03-11T20:28:00.470Z,8.67
2019-03-11T20:30:30.141Z,8.65
2019-03-11T20:32:59.803Z,8.65
2019-03-11T20:35:29.466Z,8.66
2019-03-11T20:37:59.015Z,8.64
2019-03-11T20:40:28.545Z,8.63
2019-03-11T20:42:58.073Z,8.61
2019-03-11T20:45:27.589Z,8.60
2019-03-11T20:47:57.136Z,8.57
2019-03-11T20:50:26.728Z,8.54
2019-03-11T20:52:56.359Z,8.52
2019-03-11T20:55:25.943Z,8.49
2019-03-11T20:57:55.419Z,8.48
2019-03-11T21:00:28.939Z,8.47
2019-03-11T21:03:00.075Z,8.43
2019-03-11T21:05:40.011Z,8.40
2019-03-11T21:08:09.714Z,8.37
2019-03-11T21:10:39.223Z,8.34
2019-03-11T21:13:08.931Z,8.31
2019-03-11T21:15:38.536Z,8.27
2019-03-11T21:18:08.021Z,8.23
2019-03-11T21:20:37.567Z,8.19
2019-03-11T21:23:07.360Z,8.14
2019-03-11T21:25:37.009Z,8.09
2019-03-11T21:28:06.563Z,8.06
2019-03-11T21:30:36.179Z,8.02
2019-03-11T21:33:05.891Z,7.99
2019-03-11T21:35:35.435Z,7.97
2019-03-11T21:38:05.114Z,7.93
2019-03-11T21:40:34.630Z,7.92
2019-03-11T21:43:04.092Z,7.89
2019-03-11T21:45:34.807Z,7.86
2019-03-11T21:48:04.734Z,7.83
2019-03-11T21:50:34.238Z,7.78
2019-03-11T21:53:03.823Z,7.76
2019-03-11T21:55:33.298Z,7.71
2019-03-11T21:58:12.605Z,7.67
2019-03-11T22:00:35.198Z,7.61
2019-03-11T22:03:05.223Z,7.57
2019-03-11T22:05:34.727Z,7.53
2019-03-11T22:08:04.257Z,7.49
2019-03-11T22:10:33.764Z,7.45
2019-03-11T22:13:03.284Z,7.41
2019-03-11T22:15:32.835Z,7.38
2019-03-11T22:18:02.314Z,7.34
2019-03-11T22:20:31.832Z,7.31
2019-03-11T22:23:01.329Z,7.28
2019-03-11T22:25:30.803Z,7.24
2019-03-11T22:28:00.390Z,7.22
2019-03-11T22:30:29.856Z,7.17
2019-03-11T22:32:59.349Z,7.11
2019-03-11T22:35:29.276Z,7.07
2019-03-11T22:37:59.181Z,7.03
2019-03-11T22:40:28.652Z,6.99
2019-03-11T22:42:58.128Z,6.95
2019-03-11T22:45:27.651Z,6.92
2019-03-11T22:47:57.213Z,6.88
2019-03-11T22:50:26.676Z,6.85
2019-03-11T22:52:56.152Z,6.81
2019-03-11T22:55:25.603Z,6.76
2019-03-11T22:57:55.106Z,6.73
2019-03-11T23:00:41.805Z,6.68
2019-03-11T23:03:12.030Z,6.62
2019-03-11T23:05:57.149Z,6.56
2019-03-11T23:08:12.856Z,6.48
2019-03-11T23:10:42.329Z,6.41
2019-03-11T23:13:11.811Z,6.35
2019-03-11T23:15:41.291Z,6.26
2019-03-11T23:18:10.944Z,6.17
2019-03-11T23:20:40.514Z,6.08
2019-03-11T23:23:10.129Z,6.00
2019-03-11T23:25:39.698Z,5.91
2019-03-11T23:28:09.319Z,5.83
2019-03-11T23:30:38.964Z,5.75
2019-03-11T23:33:08.421Z,5.70
2019-03-11T23:35:37.919Z,5.62
2019-03-11T23:38:07.416Z,5.58
2019-03-11T23:40:36.920Z,5.53
2019-03-11T23:43:06.531Z,5.47
2019-03-11T23:45:36.081Z,5.40
2019-03-11T23:48:05.711Z,5.34
2019-03-11T23:50:35.247Z,5.28
2019-03-11T23:53:04.782Z,5.21
2019-03-11T23:55:34.278Z,5.16
2019-03-11T23:58:03.741Z,5.10
